Time;durP1;ratioP1;P1;durP2;ratioP2;P2;SDS_P1;SDS_P2;PMS_P1;PMS_P2;Temp;Humidity;BMP_temperature;BMP_pressure;BME280_temperature;BME280_humidity;BME280_pressure;Samples;Min_cycle;Max_cycle;Signal;HPM_P1;HPM_P2
2022/11/27 00:01:41;;;;;;;25.60;9.37;;;3.80;99.90;;;;;;5057131;28;20025;-83
2022/11/27 00:04:10;;;;;;;28.03;9.43;;;3.80;99.90;;;;;;5056387;28;20074;-84
2022/11/27 00:06:37;;;;;;;20.23;8.30;;;3.90;99.90;;;;;;5056951;28;20067;-83
2022/11/27 00:09:06;;;;;;;17.47;8.27;;;3.80;99.90;;;;;;5055231;28;20099;-83
2022/11/27 00:11:32;;;;;;;23.03;8.40;;;3.80;99.90;;;;;;5055643;28;20045;-83
2022/11/27 00:13:58;;;;;;;19.57;8.47;;;3.80;99.90;;;;;;5055310;28;20184;-85
2022/11/27 00:16:25;;;;;;;24.77;7.93;;;3.70;99.90;;;;;;5056038;28;20123;-84
2022/11/27 00:18:51;;;;;;;24.47;8.30;;;3.60;99.90;;;;;;5056361;28;20135;-83
2022/11/27 00:21:23;;;;;;;16.57;7.90;;;3.60;99.90;;;;;;5055954;28;20029;-83
2022/11/27 00:23:49;;;;;;;18.17;7.45;;;3.60;99.90;;;;;;5055479;28;20458;-83
2022/11/27 00:26:14;;;;;;;16.17;7.93;;;3.60;99.90;;;;;;5056057;28;20037;-84
2022/11/27 00:28:40;;;;;;;12.00;6.80;;;3.50;99.90;;;;;;5055768;28;20055;-83
2022/11/27 00:31:28;;;;;;;13.10;6.77;;;3.50;99.90;;;;;;5056830;28;20032;-83
2022/11/27 00:34:05;;;;;;;25.27;7.13;;;3.50;99.90;;;;;;5056326;28;20070;-83
2022/11/27 00:36:32;;;;;;;13.20;6.37;;;3.40;99.90;;;;;;5056816;28;20025;-83
2022/11/27 00:38:58;;;;;;;15.17;7.70;;;3.40;99.90;;;;;;5056260;28;20037;-83
2022/11/27 00:41:27;;;;;;;13.43;7.03;;;3.40;99.90;;;;;;5055709;28;20475;-83
2022/11/27 00:43:53;;;;;;;15.90;6.97;;;3.40;99.90;;;;;;5056147;28;20033;-83
2022/11/27 00:46:22;;;;;;;13.20;7.17;;;3.40;99.90;;;;;;5055686;28;20078;-84
2022/11/27 00:48:48;;;;;;;13.67;6.93;;;3.40;99.90;;;;;;5055410;28;20032;-84
2022/11/27 00:51:16;;;;;;;11.90;6.90;;;3.50;99.90;;;;;;5056144;28;20075;-90
2022/11/27 00:53:42;;;;;;;11.73;6.40;;;3.50;99.90;;;;;;5055427;28;20535;-89
2022/11/27 00:56:13;;;;;;;13.83;7.67;;;3.50;99.90;;;;;;5055933;28;20033;-89
2022/11/27 00:58:39;;;;;;;14.77;7.33;;;3.40;99.90;;;;;;5056492;28;20025;-78
2022/11/27 01:01:06;;;;;;;19.07;7.73;;;3.40;99.90;;;;;;5054273;28;20030;-88
2022/11/27 01:03:33;;;;;;;18.83;7.60;;;3.30;99.90;;;;;;5055471;28;20028;-88
2022/11/27 01:06:06;;;;;;;21.77;9.23;;;3.30;99.90;;;;;;5054677;28;20254;-88
2022/11/27 01:08:33;;;;;;;22.13;7.93;;;3.30;99.90;;;;;;5056533;28;20465;-88
2022/11/27 01:10:58;;;;;;;27.40;7.53;;;3.30;99.90;;;;;;5055540;28;20029;-87
2022/11/27 01:13:26;;;;;;;16.87;7.20;;;3.30;99.90;;;;;;5055732;28;20405;-87
2022/11/27 01:16:08;;;;;;;20.93;6.93;;;3.20;99.90;;;;;;5055822;28;20048;-87
2022/11/27 01:18:36;;;;;;;27.88;7.50;;;3.10;99.90;;;;;;5055528;28;20116;-88
2022/11/27 01:21:02;;;;;;;17.73;6.37;;;3.20;99.90;;;;;;5054552;28;20033;-87
2022/11/27 01:23:28;;;;;;;19.53;5.90;;;3.10;99.90;;;;;;5055048;28;20065;-88
2022/11/27 01:25:54;;;;;;;12.57;6.03;;;3.10;99.90;;;;;;5054144;28;20499;-88
2022/11/27 01:28:21;;;;;;;21.87;6.63;;;3.00;99.90;;;;;;5055969;28;20029;-88
2022/11/27 01:30:48;;;;;;;14.00;6.20;;;3.00;99.90;;;;;;5055260;28;20466;-89
2022/11/27 01:33:13;;;;;;;10.57;6.43;;;3.10;99.90;;;;;;5055129;28;20029;-88
2022/11/27 01:35:39;;;;;;;20.37;6.03;;;3.00;99.90;;;;;;5054777;28;20032;-88
2022/11/27 01:38:04;;;;;;;18.47;6.83;;;3.00;99.90;;;;;;5054076;28;20370;-88
2022/11/27 01:40:30;;;;;;;13.53;5.90;;;3.00;99.90;;;;;;5054667;28;20025;-89
2022/11/27 01:42:56;;;;;;;15.47;6.30;;;3.00;99.90;;;;;;5054244;28;20029;-83
2022/11/27 01:45:22;;;;;;;16.10;7.10;;;3.10;99.90;;;;;;5054918;28;20036;-83
2022/11/27 01:47:53;;;;;;;17.50;6.60;;;3.10;99.90;;;;;;5053659;28;20036;-83
2022/11/27 01:50:25;;;;;;;35.17;7.43;;;3.10;99.90;;;;;;5055376;28;20039;-83
2022/11/27 01:52:56;;;;;;;24.20;7.37;;;3.10;99.90;;;;;;5054784;28;20040;-83
2022/11/27 01:55:27;;;;;;;20.70;7.50;;;3.10;99.90;;;;;;5054250;28;20463;-83
2022/11/27 01:58:03;;;;;;;26.20;7.20;;;3.20;99.90;;;;;;5054728;28;20036;-82
2022/11/27 02:00:29;;;;;;;23.73;6.43;;;3.20;99.90;;;;;;5055300;28;20277;-83
2022/11/27 02:02:54;;;;;;;21.33;7.03;;;3.20;99.90;;;;;;5054455;28;20083;-82
2022/11/27 02:05:23;;;;;;;13.90;6.87;;;3.20;99.90;;;;;;5053867;28;20025;-83
2022/11/27 02:07:50;;;;;;;12.27;6.67;;;3.20;99.90;;;;;;5053470;28;20025;-83
2022/11/27 02:10:16;;;;;;;20.27;6.60;;;3.20;99.90;;;;;;5055112;28;20035;-83
2022/11/27 02:13:01;;;;;;;24.67;7.10;;;3.30;99.90;;;;;;5053029;28;20053;-83
2022/11/27 02:15:49;;;;;;;13.23;5.77;;;3.40;99.90;;;;;;5053811;28;20052;-83
2022/11/27 02:18:26;;;;;;;14.13;6.10;;;3.40;99.90;;;;;;5054667;28;20036;-83
2022/11/27 02:21:06;;;;;;;51.23;6.80;;;3.40;99.90;;;;;;5054012;28;20103;-83
2022/11/27 02:23:47;;;;;;;32.13;6.20;;;3.20;99.90;;;;;;5054930;28;20078;-83
2022/11/27 02:26:36;;;;;;;21.30;6.00;;;3.20;99.90;;;;;;5054730;28;20033;-88
2022/11/27 02:29:04;;;;;;;21.80;6.03;;;3.20;99.90;;;;;;5053129;28;20092;-86
2022/11/27 02:31:38;;;;;;;15.57;5.13;;;3.30;99.90;;;;;;5053632;28;20075;-88
2022/11/27 02:34:28;;;;;;;13.53;5.47;;;3.30;99.90;;;;;;5054403;28;20310;-88
2022/11/27 02:37:02;;;;;;;24.97;5.47;;;3.30;99.90;;;;;;5054116;28;20052;-82
2022/11/27 02:39:56;;;;;;;12.10;5.50;;;3.40;99.90;;;;;;5054595;28;20025;-82
2022/11/27 02:42:22;;;;;;;11.30;4.90;;;3.40;99.90;;;;;;5052369;28;20045;-83
2022/11/27 02:45:12;;;;;;;22.70;6.13;;;3.50;99.90;;;;;;5053029;28;20248;-81
2022/11/27 02:47:40;;;;;;;13.97;6.27;;;3.50;99.90;;;;;;5048251;28;20406;-82
2022/11/27 02:50:11;;;;;;;17.20;5.83;;;3.50;99.90;;;;;;5053047;28;20037;-82
2022/11/27 02:52:36;;;;;;;16.77;5.97;;;3.70;99.90;;;;;;5054311;28;20033;-81
2022/11/27 02:55:07;;;;;;;12.60;5.60;;;3.70;99.90;;;;;;5052842;28;20458;-87
2022/11/27 02:57:35;;;;;;;16.40;6.53;;;3.80;99.90;;;;;;5053483;28;20036;-87
2022/11/27 03:00:03;;;;;;;13.07;6.37;;;3.80;99.90;;;;;;5054124;28;20075;-87
2022/11/27 03:02:34;;;;;;;23.20;5.93;;;3.90;99.90;;;;;;5053049;28;20036;-86
2022/11/27 03:05:03;;;;;;;12.90;6.07;;;3.90;99.90;;;;;;5052714;28;20112;-86
2022/11/27 03:07:47;;;;;;;12.17;4.97;;;3.90;99.90;;;;;;5053141;28;20032;-86
2022/11/27 03:10:21;;;;;;;11.20;5.10;;;4.00;99.90;;;;;;5053021;28;20035;-84
2022/11/27 03:12:48;;;;;;;12.13;5.40;;;4.00;99.90;;;;;;5054222;28;20049;-77
2022/11/27 03:15:14;;;;;;;12.03;5.50;;;4.00;99.90;;;;;;5052608;28;20028;-85
2022/11/27 03:17:42;;;;;;;12.80;5.53;;;4.00;99.90;;;;;;5054072;28;20040;-86
2022/11/27 03:20:10;;;;;;;12.20;5.40;;;4.10;99.90;;;;;;5052450;28;20047;-86
2022/11/27 03:22:36;;;;;;;12.43;5.57;;;4.10;99.90;;;;;;5053747;28;20029;-85
2022/11/27 03:25:02;;;;;;;12.60;5.13;;;4.20;99.90;;;;;;5052008;28;20032;-85
2022/11/27 03:27:34;;;;;;;9.77;4.60;;;4.20;99.90;;;;;;5053912;28;20037;-86
2022/11/27 03:30:06;;;;;;;9.48;4.78;;;4.20;99.90;;;;;;5052176;28;20037;-83
2022/11/27 03:32:32;;;;;;;11.50;5.40;;;4.20;99.90;;;;;;5052864;28;20037;-84
2022/11/27 03:34:59;;;;;;;9.80;4.80;;;4.10;99.90;;;;;;5052877;28;20501;-83
2022/11/27 03:37:26;;;;;;;12.27;5.60;;;4.20;99.90;;;;;;5052820;28;20035;-84
2022/11/27 03:39:53;;;;;;;11.73;4.90;;;4.20;99.90;;;;;;5053344;28;20033;-83
2022/11/27 03:42:23;;;;;;;12.40;4.70;;;4.10;99.90;;;;;;5053570;28;20033;-83
2022/11/27 03:44:57;;;;;;;10.27;5.10;;;4.10;99.90;;;;;;5053035;28;20029;-79
2022/11/27 03:47:49;;;;;;;10.10;4.50;;;4.10;99.90;;;;;;5052740;28;20192;-84
2022/11/27 03:50:18;;;;;;;;;;;4.10;99.90;;;;;;5053549;28;20033;-83
2022/11/27 03:53:13;;;;;;;15.10;5.03;;;4.20;99.90;;;;;;5052912;28;20169;-84
2022/11/27 03:56:17;;;;;;;10.00;4.90;;;4.10;99.90;;;;;;5052111;28;20075;-83
2022/11/27 03:59:00;;;;;;;15.03;5.30;;;4.10;99.90;;;;;;5015161;28;20537;-83
2022/11/27 04:01:27;;;;;;;13.10;4.77;;;4.10;99.90;;;;;;5049768;28;20123;-82
2022/11/27 04:03:52;;;;;;;13.47;5.07;;;4.20;99.90;;;;;;5051890;28;20067;-82
2022/11/27 04:06:18;;;;;;;10.67;4.67;;;4.10;99.90;;;;;;5053471;28;20041;-84
2022/11/27 04:08:46;;;;;;;14.10;5.07;;;4.20;99.90;;;;;;5052559;28;20025;-83
2022/11/27 04:11:12;;;;;;;10.73;5.37;;;4.20;99.90;;;;;;5051949;28;20049;-83
2022/11/27 04:13:37;;;;;;;17.37;5.07;;;4.10;99.90;;;;;;5053560;28;20056;-83
2022/11/27 04:16:03;;;;;;;10.70;4.63;;;4.10;99.90;;;;;;5053080;28;20021;-84
2022/11/27 04:18:29;;;;;;;11.83;4.60;;;4.10;99.90;;;;;;5052407;28;20025;-84
2022/11/27 04:20:55;;;;;;;12.27;4.90;;;4.20;99.90;;;;;;5052705;28;20035;-83
2022/11/27 04:23:22;;;;;;;12.93;5.30;;;4.20;99.90;;;;;;5052456;28;20136;-84
2022/11/27 04:25:48;;;;;;;12.33;5.10;;;4.20;99.90;;;;;;5053246;28;20497;-84
2022/11/27 04:28:14;;;;;;;11.03;4.77;;;4.20;99.90;;;;;;5051514;28;20037;-84
2022/11/27 04:30:39;;;;;;;10.10;4.67;;;4.30;99.90;;;;;;5052200;28;20467;-82
2022/11/27 04:33:05;;;;;;;10.53;4.90;;;4.40;99.90;;;;;;5052628;28;20028;-83
2022/11/27 04:35:30;;;;;;;12.47;5.17;;;4.40;99.90;;;;;;5055054;28;20029;-83
2022/11/27 04:37:57;;;;;;;12.33;5.10;;;4.40;99.90;;;;;;5055683;28;20121;-83
2022/11/27 04:40:22;;;;;;;10.23;4.80;;;4.40;99.90;;;;;;5056059;28;20471;-82
2022/11/27 04:42:48;;;;;;;8.37;4.67;;;4.50;99.90;;;;;;5056131;28;20033;-84
2022/11/27 04:45:14;;;;;;;12.10;4.80;;;4.40;99.90;;;;;;5056082;28;20477;-84
2022/11/27 04:47:40;;;;;;;10.07;4.03;;;4.40;99.90;;;;;;5055978;28;20122;-84
2022/11/27 04:50:06;;;;;;;9.57;4.43;;;4.40;99.90;;;;;;5056105;28;20451;-84
2022/11/27 04:52:32;;;;;;;11.13;4.60;;;4.40;99.90;;;;;;5056770;28;20042;-84
2022/11/27 04:54:57;;;;;;;9.73;5.00;;;4.30;99.90;;;;;;5056142;28;20033;-84
2022/11/27 04:57:23;;;;;;;8.87;4.03;;;4.30;99.90;;;;;;5055606;28;20032;-83
2022/11/27 04:59:49;;;;;;;8.50;4.20;;;4.30;99.90;;;;;;5054912;28;20436;-82
2022/11/27 05:02:14;;;;;;;8.73;4.33;;;4.30;99.90;;;;;;5054699;28;20032;-83
2022/11/27 05:04:40;;;;;;;11.23;4.63;;;4.30;99.90;;;;;;5055733;28;20029;-83
2022/11/27 05:07:06;;;;;;;9.73;4.97;;;4.30;99.90;;;;;;5055970;28;20040;-85
2022/11/27 05:09:31;;;;;;;9.43;4.30;;;4.20;99.90;;;;;;5056227;28;20028;-85
2022/11/27 05:11:57;;;;;;;10.93;4.70;;;4.20;99.90;;;;;;5054350;28;20052;-78
2022/11/27 05:14:27;;;;;;;10.20;4.57;;;4.20;99.90;;;;;;5056053;28;20071;-85
2022/11/27 05:16:55;;;;;;;8.03;4.13;;;4.10;99.90;;;;;;5055421;28;20032;-85
2022/11/27 05:19:22;;;;;;;10.93;4.20;;;4.20;99.90;;;;;;5055358;28;20393;-81
2022/11/27 05:21:49;;;;;;;9.63;4.00;;;4.20;99.90;;;;;;5055235;28;20031;-81
2022/11/27 05:24:16;;;;;;;9.30;4.20;;;4.20;99.90;;;;;;5055469;28;20064;-81
2022/11/27 05:26:42;;;;;;;9.67;4.23;;;4.20;99.90;;;;;;5055697;28;20064;-80
2022/11/27 05:29:09;;;;;;;10.37;4.80;;;4.20;99.90;;;;;;5055532;28;20056;-81
2022/11/27 05:31:35;;;;;;;9.50;3.70;;;4.30;99.90;;;;;;5056207;28;20025;-81
2022/11/27 05:34:01;;;;;;;7.23;3.90;;;4.20;99.90;;;;;;5054453;28;20087;-81
2022/11/27 05:36:28;;;;;;;7.33;3.53;;;4.20;99.90;;;;;;5054716;28;20033;-82
2022/11/27 05:38:54;;;;;;;7.53;4.17;;;4.20;99.90;;;;;;5055667;28;20087;-82
2022/11/27 05:41:19;;;;;;;10.20;4.10;;;4.20;99.90;;;;;;5054885;28;20029;-82
2022/11/27 05:43:45;;;;;;;7.70;4.17;;;4.30;99.90;;;;;;5054497;28;20039;-82
2022/11/27 05:46:13;;;;;;;10.87;3.93;;;4.30;99.90;;;;;;5053244;28;20025;-81
2022/11/27 05:48:39;;;;;;;10.00;4.57;;;4.20;99.90;;;;;;5055293;28;20081;-82
2022/11/27 05:51:05;;;;;;;10.30;4.10;;;4.20;99.90;;;;;;5054912;28;20108;-82
2022/11/27 05:53:30;;;;;;;8.77;4.60;;;4.20;99.90;;;;;;5055576;28;20033;-82
2022/11/27 05:56:11;;;;;;;8.33;3.90;;;4.30;99.90;;;;;;5054547;28;20032;-76
2022/11/27 05:58:39;;;;;;;9.63;3.97;;;4.20;99.90;;;;;;5054632;28;20094;-82
2022/11/27 06:01:05;;;;;;;13.33;4.67;;;4.30;99.90;;;;;;5053411;28;20110;-82
2022/11/27 06:03:30;;;;;;;7.57;3.77;;;4.20;99.90;;;;;;5053902;28;20501;-82
2022/11/27 06:05:56;;;;;;;8.37;4.27;;;4.20;99.90;;;;;;5042663;28;20029;-82
2022/11/27 06:08:22;;;;;;;12.30;4.27;;;4.20;99.90;;;;;;5061721;28;20063;-83
2022/11/27 06:10:49;;;;;;;7.30;3.97;;;4.20;99.90;;;;;;5055109;28;20024;-82
2022/11/27 06:13:15;;;;;;;8.63;4.00;;;4.20;99.90;;;;;;5054870;28;20390;-83
2022/11/27 06:15:41;;;;;;;8.83;4.10;;;4.10;99.90;;;;;;5069176;28;20143;-82
2022/11/27 06:18:07;;;;;;;9.53;4.23;;;4.10;99.90;;;;;;5061342;28;20042;-83
2022/11/27 06:20:32;;;;;;;9.93;4.17;;;4.20;99.90;;;;;;5062576;28;20032;-84
2022/11/27 06:22:58;;;;;;;10.77;4.77;;;4.20;99.90;;;;;;5064096;28;20029;-77
2022/11/27 06:25:24;;;;;;;9.50;4.20;;;4.20;99.90;;;;;;5070070;28;20050;-84
2022/11/27 06:27:50;;;;;;;11.07;4.37;;;4.20;99.90;;;;;;5058896;28;20036;-83
2022/11/27 06:30:16;;;;;;;13.33;4.43;;;4.20;99.90;;;;;;5064448;28;20107;-82
2022/11/27 06:32:42;;;;;;;7.93;4.30;;;4.20;99.90;;;;;;5066131;28;20025;-84
2022/11/27 06:35:08;;;;;;;12.00;4.37;;;4.20;99.90;;;;;;5043846;28;20025;-83
2022/11/27 06:37:34;;;;;;;10.33;4.07;;;4.20;99.90;;;;;;5040082;28;20028;-83
2022/11/27 06:39:59;;;;;;;9.70;4.50;;;4.20;99.90;;;;;;5066745;28;20481;-82
2022/11/27 06:42:28;;;;;;;7.40;3.60;;;4.10;99.90;;;;;;5063522;28;20174;-83
2022/11/27 06:44:54;;;;;;;9.97;4.20;;;4.20;99.90;;;;;;5058594;28;20032;-83
2022/11/27 06:47:20;;;;;;;8.63;4.10;;;4.20;99.90;;;;;;5054097;28;20040;-82
2022/11/27 06:49:45;;;;;;;9.80;4.07;;;4.10;99.90;;;;;;5068320;28;20029;-83
2022/11/27 06:52:11;;;;;;;11.07;4.30;;;4.10;99.90;;;;;;5062007;28;20029;-83
2022/11/27 06:54:36;;;;;;;9.17;4.00;;;4.20;99.90;;;;;;5061332;28;20037;-84
2022/11/27 06:57:02;;;;;;;10.70;3.90;;;4.20;99.90;;;;;;5067995;28;20551;-83
2022/11/27 06:59:28;;;;;;;9.67;4.37;;;4.10;99.90;;;;;;5054568;28;20031;-84
2022/11/27 07:01:53;;;;;;;9.23;4.20;;;4.10;99.90;;;;;;5052977;28;20028;-86
2022/11/27 07:04:19;;;;;;;9.93;3.80;;;4.10;99.90;;;;;;5053856;28;20201;-83
2022/11/27 07:06:45;;;;;;;6.37;3.47;;;4.20;99.90;;;;;;5053098;28;20037;-81
2022/11/27 07:09:10;;;;;;;7.43;3.83;;;4.20;99.90;;;;;;5069622;28;20375;-80
2022/11/27 07:11:38;;;;;;;8.00;3.97;;;4.10;99.90;;;;;;5056065;28;20394;-82
2022/11/27 07:14:04;;;;;;;8.43;3.60;;;4.00;99.90;;;;;;5072179;28;20028;-81
2022/11/27 07:16:34;;;;;;;8.50;3.87;;;4.00;99.90;;;;;;5060955;28;20029;-81
2022/11/27 07:19:03;;;;;;;7.03;3.60;;;4.00;99.90;;;;;;5067902;28;20073;-81
2022/11/27 07:21:29;;;;;;;8.10;3.67;;;4.00;99.90;;;;;;5055864;28;20036;-82
2022/11/27 07:23:55;;;;;;;7.73;3.33;;;4.00;99.90;;;;;;5065854;28;20028;-82
2022/11/27 07:26:24;;;;;;;9.07;3.60;;;4.10;99.90;;;;;;5062177;28;20024;-84
2022/11/27 07:28:50;;;;;;;7.40;3.03;;;4.00;99.90;;;;;;5058434;28;20028;-85
2022/11/27 07:31:18;;;;;;;8.27;3.87;;;4.10;99.90;;;;;;5059903;28;20025;-84
2022/11/27 07:33:44;;;;;;;6.97;3.63;;;4.00;99.90;;;;;;5066619;28;20115;-85
2022/11/27 07:36:16;;;;;;;7.90;3.87;;;4.10;99.90;;;;;;5048393;28;20108;-84
2022/11/27 07:38:42;;;;;;;6.25;3.13;;;4.10;99.90;;;;;;5072592;28;20028;-85
2022/11/27 07:41:08;;;;;;;6.23;3.60;;;4.10;99.90;;;;;;5055984;28;20033;-83
2022/11/27 07:43:35;;;;;;;5.43;3.00;;;4.10;99.90;;;;;;5055959;28;20389;-85
2022/11/27 07:46:05;;;;;;;6.63;3.70;;;4.10;99.90;;;;;;5064748;28;20064;-85
2022/11/27 07:48:31;;;;;;;6.43;3.10;;;4.20;99.90;;;;;;5052284;28;20044;-85
2022/11/27 07:50:57;;;;;;;8.70;4.03;;;4.10;99.90;;;;;;5067238;28;20021;-84
2022/11/27 07:53:23;;;;;;;7.70;3.67;;;4.00;99.90;;;;;;5070513;28;20089;-82
2022/11/27 07:55:48;;;;;;;8.63;4.17;;;4.00;99.90;;;;;;5057272;28;20416;-81
2022/11/27 07:58:14;;;;;;;9.30;4.67;;;4.10;99.90;;;;;;5063159;28;20131;-81
2022/11/27 08:00:40;;;;;;;8.17;4.40;;;4.10;99.90;;;;;;5051385;28;20075;-82
2022/11/27 08:03:05;;;;;;;8.10;4.37;;;4.20;99.90;;;;;;5067713;28;20452;-83
2022/11/27 08:05:35;;;;;;;6.13;3.33;;;4.20;99.90;;;;;;5056206;28;20036;-86
2022/11/27 08:08:03;;;;;;;7.30;3.70;;;4.10;99.90;;;;;;5065368;28;20037;-84
2022/11/27 08:10:35;;;;;;;6.07;3.20;;;4.10;99.90;;;;;;5062255;28;20067;-88
2022/11/27 08:13:00;;;;;;;5.07;3.07;;;4.10;99.90;;;;;;5071301;28;20143;-87
2022/11/27 08:15:26;;;;;;;5.67;2.97;;;4.10;99.90;;;;;;5059605;28;20065;-86
2022/11/27 08:17:52;;;;;;;7.50;3.80;;;4.10;99.90;;;;;;5069603;28;20036;-86
2022/11/27 08:20:18;;;;;;;6.97;3.90;;;4.20;99.90;;;;;;5063900;28;20036;-85
2022/11/27 08:22:44;;;;;;;4.63;3.07;;;4.20;99.90;;;;;;5070105;28;20024;-83
2022/11/27 08:25:10;;;;;;;7.87;3.50;;;4.20;99.90;;;;;;5058777;28;20064;-84
2022/11/27 08:27:35;;;;;;;5.70;3.20;;;4.20;99.90;;;;;;5071953;28;20029;-84
2022/11/27 08:30:02;;;;;;;4.57;2.67;;;4.10;99.90;;;;;;5063862;28;20031;-85
2022/11/27 08:32:28;;;;;;;4.47;2.90;;;4.20;99.90;;;;;;5065300;28;20033;-88
2022/11/27 08:34:53;;;;;;;4.87;2.90;;;4.20;99.90;;;;;;5050886;28;20094;-88
2022/11/27 08:37:20;;;;;;;4.63;3.00;;;4.30;99.90;;;;;;5037344;28;20025;-88
2022/11/27 08:39:46;;;;;;;4.87;2.87;;;4.30;99.90;;;;;;5070378;28;20036;-84
2022/11/27 08:42:11;;;;;;;4.53;2.70;;;4.30;99.90;;;;;;5055960;28;20033;-85
2022/11/27 08:44:37;;;;;;;4.73;2.57;;;4.40;99.90;;;;;;5067587;28;20072;-85
2022/11/27 08:47:03;;;;;;;4.63;2.87;;;4.30;99.90;;;;;;5060229;28;20459;-84
2022/11/27 08:49:28;;;;;;;4.97;3.23;;;4.50;99.90;;;;;;5071188;28;20036;-84
2022/11/27 08:51:54;;;;;;;5.50;3.00;;;4.40;99.90;;;;;;5055424;28;20032;-83
2022/11/27 08:54:19;;;;;;;4.03;2.77;;;4.50;99.90;;;;;;5065759;28;20127;-83
2022/11/27 08:56:45;;;;;;;5.83;3.63;;;4.60;99.90;;;;;;5061818;28;20032;-84
2022/11/27 08:59:11;;;;;;;5.60;3.00;;;4.60;99.90;;;;;;5071053;28;20089;-83
2022/11/27 09:01:36;;;;;;;6.10;3.17;;;4.60;99.90;;;;;;5062115;28;20025;-85
2022/11/27 09:04:02;;;;;;;4.93;2.77;;;4.70;99.90;;;;;;5066519;28;20021;-84
2022/11/27 09:06:30;;;;;;;5.80;3.70;;;4.80;99.90;;;;;;5056842;28;20254;-84
2022/11/27 09:08:58;;;;;;;5.47;3.20;;;4.80;99.90;;;;;;5075733;28;20085;-84
2022/11/27 09:11:23;;;;;;;9.33;3.53;;;4.80;99.90;;;;;;5059959;28;20045;-84
2022/11/27 09:13:49;;;;;;;6.33;3.80;;;4.90;99.90;;;;;;5073426;28;20032;-81
2022/11/27 09:16:17;;;;;;;5.60;3.50;;;4.90;99.90;;;;;;5070649;28;20021;-85
2022/11/27 09:18:49;;;;;;;5.63;3.80;;;4.90;99.90;;;;;;5066436;28;20051;-86
2022/11/27 09:21:17;;;;;;;5.80;3.50;;;4.90;99.90;;;;;;5062082;28;20029;-86
2022/11/27 09:23:43;;;;;;;5.77;3.30;;;4.80;99.90;;;;;;5071705;28;20057;-88
2022/11/27 09:26:11;;;;;;;5.53;3.23;;;4.80;99.90;;;;;;5056196;28;20029;-81
2022/11/27 09:28:38;;;;;;;5.33;3.63;;;4.80;99.90;;;;;;5056247;28;20033;-87
2022/11/27 09:31:06;;;;;;;6.53;3.43;;;4.80;99.90;;;;;;5057055;28;20463;-89
2022/11/27 09:33:36;;;;;;;7.67;3.33;;;5.00;99.90;;;;;;5055949;28;20025;-87
2022/11/27 09:36:07;;;;;;;4.30;3.33;;;5.00;99.90;;;;;;5056320;28;20017;-89
2022/11/27 09:38:33;;;;;;;5.63;3.67;;;5.10;99.90;;;;;;5055486;28;20028;-85
2022/11/27 09:41:06;;;;;;;4.87;3.50;;;5.00;99.90;;;;;;5055184;28;20039;-85
2022/11/27 09:43:40;;;;;;;7.40;3.80;;;5.10;99.90;;;;;;5054796;28;20055;-84
2022/11/27 09:46:16;;;;;;;6.77;3.43;;;5.20;99.90;;;;;;5052364;28;20070;-78
2022/11/27 09:48:46;;;;;;;6.23;3.27;;;5.20;99.90;;;;;;5053496;28;20386;-88
2022/11/27 09:51:27;;;;;;;5.40;3.70;;;5.30;99.90;;;;;;5054458;28;20031;-84
2022/11/27 09:54:19;;;;;;;6.10;3.93;;;5.40;99.90;;;;;;5057218;28;20484;-85
2022/11/27 09:56:49;;;;;;;5.83;3.70;;;5.40;99.90;;;;;;5073460;28;20136;-85
2022/11/27 09:59:21;;;;;;;10.57;4.20;;;5.50;99.90;;;;;;5057338;28;20056;-86
2022/11/27 10:01:47;;;;;;;6.88;4.28;;;5.50;99.90;;;;;;5051343;28;20024;-83
2022/11/27 10:04:16;;;;;;;7.00;4.17;;;5.50;99.90;;;;;;5055708;28;20021;-83
2022/11/27 10:07:11;;;;;;;7.07;4.83;;;5.50;99.90;;;;;;5053386;28;20057;-86
2022/11/27 10:09:54;;;;;;;6.37;4.07;;;5.60;99.90;;;;;;5055966;28;20020;-85
2022/11/27 10:12:40;;;;;;;6.30;4.20;;;5.60;99.90;;;;;;5062778;28;20387;-86
2022/11/27 10:15:08;;;;;;;6.83;4.23;;;5.60;99.90;;;;;;5069979;28;20025;-87
2022/11/27 10:17:39;;;;;;;5.13;3.77;;;5.70;99.90;;;;;;5073261;28;20138;-87
2022/11/27 10:20:30;;;;;;;6.25;4.30;;;5.70;99.90;;;;;;5066186;28;20115;-84
2022/11/27 10:23:19;;;;;;;8.47;4.43;;;5.60;99.90;;;;;;5053345;28;20025;-86
2022/11/27 10:25:50;;;;;;;10.07;5.13;;;5.50;99.90;;;;;;5042067;28;20482;-87
2022/11/27 10:28:45;;;;;;;7.82;5.43;;;5.60;99.90;;;;;;5053384;28;20402;-88
2022/11/27 10:31:28;;;;;;;10.70;6.00;;;5.60;99.90;;;;;;5057174;28;20035;-87
2022/11/27 10:34:01;;;;;;;11.63;5.93;;;5.60;99.90;;;;;;5062124;28;20056;-76
2022/11/27 10:36:44;;;;;;;10.60;5.43;;;5.70;99.90;;;;;;5061913;28;20365;-76
2022/11/27 10:39:23;;;;;;;10.37;5.57;;;5.60;99.90;;;;;;5052174;28;20025;-76
2022/11/27 10:41:58;;;;;;;14.63;6.33;;;5.60;99.90;;;;;;5053747;28;20033;-76
2022/11/27 10:44:31;;;;;;;12.23;6.17;;;5.60;99.90;;;;;;5052953;28;20060;-77
2022/11/27 10:47:03;;;;;;;13.83;6.77;;;5.60;99.90;;;;;;5069387;28;20131;-76
2022/11/27 10:49:29;;;;;;;13.57;7.40;;;5.70;99.90;;;;;;5053168;28;20028;-76
2022/11/27 10:51:55;;;;;;;15.00;7.17;;;5.70;99.90;;;;;;5056324;28;20068;-78
2022/11/27 10:54:31;;;;;;;14.53;7.20;;;5.70;99.90;;;;;;5061059;28;20059;-78
2022/11/27 10:57:36;;;;;;;12.90;6.77;;;5.70;99.90;;;;;;5053891;28;20036;-78
2022/11/27 11:00:20;;;;;;;15.47;7.90;;;5.80;99.90;;;;;;5042132;28;20033;-77
2022/11/27 11:02:45;;;;;;;16.37;7.70;;;5.80;99.90;;;;;;5065570;28;20024;-77
2022/11/27 11:05:17;;;;;;;16.30;7.23;;;5.80;99.90;;;;;;5042489;28;20021;-79
2022/11/27 11:07:57;;;;;;;14.55;7.55;;;5.80;99.90;;;;;;5067937;28;20135;-79
2022/11/27 11:10:30;;;;;;;16.20;7.90;;;5.80;99.90;;;;;;5050491;28;20036;-78
2022/11/27 11:13:31;;;;;;;16.97;9.23;;;5.80;99.90;;;;;;5066709;28;20048;-78
2022/11/27 11:16:03;;;;;;;20.87;8.80;;;5.70;99.90;;;;;;5045218;28;20428;-77
2022/11/27 11:18:32;;;;;;;20.90;9.40;;;5.70;99.90;;;;;;5053381;28;20064;-77
2022/11/27 11:21:00;;;;;;;20.53;9.63;;;5.70;99.90;;;;;;5053021;28;20032;-77
2022/11/27 11:23:34;;;;;;;21.93;10.00;;;5.60;99.90;;;;;;5059255;28;20025;-77
2022/11/27 11:26:04;;;;;;;20.07;9.27;;;5.60;99.90;;;;;;5058284;28;20071;-78
2022/11/27 11:28:30;;;;;;;24.20;10.03;;;5.60;99.90;;;;;;5056894;28;20041;-78
2022/11/27 11:31:06;;;;;;;21.50;9.87;;;5.70;99.90;;;;;;5055631;28;20033;-78
2022/11/27 11:33:38;;;;;;;22.00;9.70;;;5.70;99.90;;;;;;5061516;28;20060;-77
2022/11/27 11:36:10;;;;;;;18.43;9.10;;;5.80;99.90;;;;;;5051759;28;20039;-78
2022/11/27 11:38:37;;;;;;;18.52;8.18;;;5.90;99.90;;;;;;5054231;28;20055;-77
2022/11/27 11:41:05;;;;;;;18.27;9.30;;;5.90;99.90;;;;;;5052243;28;20466;-77
2022/11/27 11:43:34;;;;;;;22.27;9.30;;;5.80;99.90;;;;;;5068351;28;20473;-77
2022/11/27 11:46:22;;;;;;;21.27;9.63;;;5.90;99.90;;;;;;5056863;28;20025;-76
2022/11/27 11:48:57;;;;;;;21.13;9.67;;;5.90;99.90;;;;;;5057879;28;20500;-76
2022/11/27 11:51:37;;;;;;;22.53;9.57;;;5.90;99.90;;;;;;5068463;28;20498;-78
2022/11/27 11:54:35;;;;;;;22.13;10.13;;;5.90;99.90;;;;;;5069628;28;20100;-78
2022/11/27 11:57:04;;;;;;;21.03;10.10;;;5.90;99.90;;;;;;5056439;28;20086;-77
2022/11/27 11:59:57;;;;;;;25.07;10.87;;;5.90;99.90;;;;;;5067786;28;20168;-76
2022/11/27 12:02:37;;;;;;;24.53;10.17;;;5.90;99.90;;;;;;5060354;28;20028;-77
2022/11/27 12:05:54;;;;;;;20.37;9.80;;;5.90;99.90;;;;;;5053626;28;20102;-77
2022/11/27 12:08:57;;;;;;;20.30;8.93;;;5.90;99.90;;;;;;5040963;28;20052;-77
2022/11/27 12:11:32;;;;;;;18.97;9.03;;;5.90;99.90;;;;;;5054847;28;20056;-80
2022/11/27 12:14:18;;;;;;;23.00;9.70;;;5.80;99.90;;;;;;5065846;28;20025;-77
2022/11/27 12:17:06;;;;;;;19.53;9.23;;;5.90;99.90;;;;;;5064108;28;20488;-75
2022/11/27 12:19:46;;;;;;;18.03;9.20;;;5.90;99.90;;;;;;5054381;28;20077;-74
2022/11/27 12:22:35;;;;;;;20.20;8.53;;;6.00;99.90;;;;;;5064773;28;20381;-77
2022/11/27 12:25:16;;;;;;;18.80;9.10;;;6.00;99.90;;;;;;5070440;28;20050;-77
2022/11/27 12:28:23;;;;;;;14.63;8.03;;;6.10;99.90;;;;;;5040945;28;20033;-75
2022/11/27 12:31:28;;;;;;;19.33;8.47;;;6.10;99.90;;;;;;5056620;28;20033;-75
2022/11/27 12:33:59;;;;;;;18.03;8.13;;;6.00;99.90;;;;;;5032682;28;20033;-79
2022/11/27 12:36:42;;;;;;;20.37;8.47;;;6.00;99.90;;;;;;5051761;28;20033;-76
2022/11/27 12:39:24;;;;;;;19.23;8.60;;;6.00;99.90;;;;;;5054077;28;20525;-76
2022/11/27 12:42:04;;;;;;;18.60;9.48;;;6.00;99.90;;;;;;5041382;28;20047;-76
2022/11/27 12:45:02;;;;;;;19.47;9.33;;;6.00;99.90;;;;;;5059475;28;20430;-82
2022/11/27 12:47:47;;;;;;;19.97;9.50;;;6.00;99.90;;;;;;5068146;28;20043;-80
2022/11/27 12:50:40;;;;;;;23.13;10.37;;;6.10;99.90;;;;;;5060663;28;20055;-78
2022/11/27 12:53:22;;;;;;;15.07;8.60;;;6.10;99.90;;;;;;5062279;28;20024;-84
2022/11/27 12:55:59;;;;;;;16.38;8.75;;;6.10;99.90;;;;;;5043483;28;20024;-76
2022/11/27 12:58:34;;;;;;;15.57;8.20;;;6.10;99.90;;;;;;5063172;28;20040;-77
2022/11/27 13:01:06;;;;;;;19.10;9.77;;;6.20;99.90;;;;;;5054170;28;20111;-79
2022/11/27 13:04:05;;;;;;;21.50;9.02;;;6.20;99.90;;;;;;5069988;28;20070;-79
2022/11/27 13:06:41;;;;;;;20.73;8.90;;;6.30;99.90;;;;;;5064880;28;20060;-76
2022/11/27 13:09:14;;;;;;;17.40;8.03;;;6.20;99.90;;;;;;5058693;28;20033;-77
2022/11/27 13:11:42;;;;;;;16.23;8.47;;;6.30;99.90;;;;;;5042567;28;20052;-77